sensor_id;sensor_type;location;lat;lon;timestamp;pressure;altitude;pressure_sealevel;temperature;humidity
69570;BME280;56781;42.292;23.146;2022-08-23T00:02:22;94973.03;;;16.16;100.00
69570;BME280;56781;42.292;23.146;2022-08-23T00:04:50;95013.56;;;16.32;100.00
69570;BME280;56781;42.292;23.146;2022-08-23T00:07:34;95000.47;;;16.34;100.00
69570;BME280;56781;42.292;23.146;2022-08-23T00:10:05;95008.31;;;16.39;100.00
69570;BME280;56781;42.292;23.146;2022-08-23T00:12:32;94991.69;;;16.21;100.00
69570;BME280;56781;42.292;23.146;2022-08-23T00:14:59;94967.88;;;16.11;100.00
69570;BME280;56781;42.292;23.146;2022-08-23T00:17:26;95019.88;;;16.55;100.00
69570;BME280;56781;42.292;23.146;2022-08-23T00:20:02;94995.84;;;16.34;100.00
69570;BME280;56781;42.292;23.146;2022-08-23T00:22:30;95012.94;;;16.38;100.00
69570;BME280;56781;42.292;23.146;2022-08-23T00:24:57;94997.94;;;16.25;100.00
69570;BME280;56781;42.292;23.146;2022-08-23T00:27:24;94987.50;;;16.24;100.00
69570;BME280;56781;42.292;23.146;2022-08-23T00:29:53;94958.31;;;15.98;100.00
69570;BME280;56781;42.292;23.146;2022-08-23T00:32:28;94996.72;;;16.23;100.00
69570;BME280;56781;42.292;23.146;2022-08-23T00:34:57;94956.03;;;16.00;100.00
69570;BME280;56781;42.292;23.146;2022-08-23T00:37:26;94979.19;;;16.01;100.00
69570;BME280;56781;42.292;23.146;2022-08-23T00:39:53;94943.06;;;15.89;100.00
69570;BME280;56781;42.292;23.146;2022-08-23T00:45:47;94991.31;;;15.91;100.00
69570;BME280;56781;42.292;23.146;2022-08-23T00:48:36;94988.25;;;15.92;100.00
69570;BME280;56781;42.292;23.146;2022-08-23T00:51:11;94981.53;;;15.86;100.00
69570;BME280;56781;42.292;23.146;2022-08-23T00:53:47;94965.41;;;15.74;100.00
69570;BME280;56781;42.292;23.146;2022-08-23T00:56:17;94992.19;;;15.95;100.00
69570;BME280;56781;42.292;23.146;2022-08-23T00:58:45;94995.75;;;15.99;100.00
69570;BME280;56781;42.292;23.146;2022-08-23T01:01:13;94966.75;;;15.80;100.00
69570;BME280;56781;42.292;23.146;2022-08-23T01:03:46;94969.38;;;15.64;100.00
69570;BME280;56781;42.292;23.146;2022-08-23T01:09:05;94977.53;;;15.52;100.00
69570;BME280;56781;42.292;23.146;2022-08-23T01:11:43;95018.72;;;15.93;100.00
69570;BME280;56781;42.292;23.146;2022-08-23T01:14:17;94989.19;;;15.84;100.00
69570;BME280;56781;42.292;23.146;2022-08-23T01:16:59;94997.47;;;15.63;100.00
69570;BME280;56781;42.292;23.146;2022-08-23T01:19:34;95014.91;;;15.66;100.00
69570;BME280;56781;42.292;23.146;2022-08-23T01:22:15;94996.38;;;15.64;100.00
69570;BME280;56781;42.292;23.146;2022-08-23T01:24:45;94992.50;;;15.78;100.00
69570;BME280;56781;42.292;23.146;2022-08-23T01:27:32;95015.94;;;15.89;100.00
69570;BME280;56781;42.292;23.146;2022-08-23T01:30:00;94990.44;;;15.59;100.00
69570;BME280;56781;42.292;23.146;2022-08-23T01:32:27;95004.63;;;15.56;100.00
69570;BME280;56781;42.292;23.146;2022-08-23T01:34:55;95015.41;;;15.56;100.00
69570;BME280;56781;42.292;23.146;2022-08-23T01:37:22;95009.41;;;15.34;100.00
69570;BME280;56781;42.292;23.146;2022-08-23T01:39:49;95018.75;;;15.37;100.00
69570;BME280;56781;42.292;23.146;2022-08-23T01:42:18;95014.97;;;15.54;100.00
69570;BME280;56781;42.292;23.146;2022-08-23T01:44:45;95010.56;;;15.61;100.00
69570;BME280;56781;42.292;23.146;2022-08-23T01:47:12;95005.31;;;15.52;100.00
69570;BME280;56781;42.292;23.146;2022-08-23T01:49:40;95023.94;;;15.58;100.00
69570;BME280;56781;42.292;23.146;2022-08-23T01:52:07;95021.06;;;15.50;100.00
69570;BME280;56781;42.292;23.146;2022-08-23T01:54:34;95013.81;;;15.55;100.00
69570;BME280;56781;42.292;23.146;2022-08-23T01:57:01;95037.09;;;15.87;100.00
69570;BME280;56781;42.292;23.146;2022-08-23T01:59:28;95000.19;;;15.91;100.00
69570;BME280;56781;42.292;23.146;2022-08-23T02:01:55;95002.78;;;15.72;100.00
69570;BME280;56781;42.292;23.146;2022-08-23T02:04:23;95009.16;;;15.80;100.00
69570;BME280;56781;42.292;23.146;2022-08-23T02:06:51;95023.00;;;15.94;100.00
69570;BME280;56781;42.292;23.146;2022-08-23T02:09:18;95005.25;;;15.65;100.00
69570;BME280;56781;42.292;23.146;2022-08-23T02:11:45;94990.00;;;15.57;100.00
69570;BME280;56781;42.292;23.146;2022-08-23T02:14:17;95026.13;;;15.80;100.00
69570;BME280;56781;42.292;23.146;2022-08-23T02:16:48;95004.53;;;15.68;100.00
69570;BME280;56781;42.292;23.146;2022-08-23T02:19:32;95004.09;;;15.66;100.00
69570;BME280;56781;42.292;23.146;2022-08-23T02:21:59;95002.66;;;15.68;100.00
69570;BME280;56781;42.292;23.146;2022-08-23T02:24:26;95013.94;;;15.86;100.00
69570;BME280;56781;42.292;23.146;2022-08-23T02:26:56;94989.38;;;15.76;100.00
69570;BME280;56781;42.292;23.146;2022-08-23T02:29:27;95008.88;;;15.85;100.00
69570;BME280;56781;42.292;23.146;2022-08-23T02:31:57;95019.69;;;16.01;100.00
69570;BME280;56781;42.292;23.146;2022-08-23T02:34:25;95043.94;;;16.13;100.00
69570;BME280;56781;42.292;23.146;2022-08-23T02:36:53;95029.50;;;16.21;100.00
69570;BME280;56781;42.292;23.146;2022-08-23T02:39:21;95046.75;;;16.32;100.00
69570;BME280;56781;42.292;23.146;2022-08-23T02:41:48;95038.13;;;16.58;100.00
69570;BME280;56781;42.292;23.146;2022-08-23T02:44:15;95042.91;;;16.65;100.00
69570;BME280;56781;42.292;23.146;2022-08-23T02:46:44;95043.94;;;16.45;100.00
69570;BME280;56781;42.292;23.146;2022-08-23T02:49:12;95074.09;;;16.31;100.00
69570;BME280;56781;42.292;23.146;2022-08-23T02:51:39;95074.69;;;16.24;100.00
69570;BME280;56781;42.292;23.146;2022-08-23T02:54:07;95049.78;;;16.15;100.00
69570;BME280;56781;42.292;23.146;2022-08-23T02:56:34;95068.69;;;16.15;100.00
69570;BME280;56781;42.292;23.146;2022-08-23T02:59:04;95042.63;;;16.07;100.00
69570;BME280;56781;42.292;23.146;2022-08-23T03:01:35;95056.91;;;16.07;100.00
69570;BME280;56781;42.292;23.146;2022-08-23T03:04:07;95064.41;;;16.14;100.00
69570;BME280;56781;42.292;23.146;2022-08-23T03:06:35;95040.72;;;16.07;100.00
69570;BME280;56781;42.292;23.146;2022-08-23T03:09:04;95060.41;;;16.08;100.00
69570;BME280;56781;42.292;23.146;2022-08-23T03:11:31;95050.53;;;16.00;100.00
69570;BME280;56781;42.292;23.146;2022-08-23T03:13:59;95081.91;;;16.20;100.00
69570;BME280;56781;42.292;23.146;2022-08-23T03:16:27;95055.56;;;16.01;100.00
69570;BME280;56781;42.292;23.146;2022-08-23T03:18:55;95028.84;;;15.96;100.00
69570;BME280;56781;42.292;23.146;2022-08-23T03:21:22;95080.72;;;16.33;100.00
69570;BME280;56781;42.292;23.146;2022-08-23T03:23:50;95070.88;;;16.41;100.00
69570;BME280;56781;42.292;23.146;2022-08-23T03:26:17;95054.47;;;16.34;100.00
69570;BME280;56781;42.292;23.146;2022-08-23T03:28:45;95042.13;;;16.33;100.00
69570;BME280;56781;42.292;23.146;2022-08-23T03:31:13;95032.25;;;16.09;100.00
69570;BME280;56781;42.292;23.146;2022-08-23T03:33:41;95075.06;;;16.54;100.00
69570;BME280;56781;42.292;23.146;2022-08-23T03:36:10;95082.03;;;16.55;100.00
69570;BME280;56781;42.292;23.146;2022-08-23T03:38:39;95090.59;;;16.57;100.00
69570;BME280;56781;42.292;23.146;2022-08-23T03:41:07;95065.81;;;16.55;100.00
69570;BME280;56781;42.292;23.146;2022-08-23T03:43:34;95073.06;;;16.67;100.00
69570;BME280;56781;42.292;23.146;2022-08-23T03:46:02;95086.66;;;16.71;100.00
69570;BME280;56781;42.292;23.146;2022-08-23T03:48:30;95057.44;;;16.45;100.00
69570;BME280;56781;42.292;23.146;2022-08-23T03:50:57;95091.53;;;16.49;100.00
69570;BME280;56781;42.292;23.146;2022-08-23T03:53:25;95101.81;;;16.44;100.00
69570;BME280;56781;42.292;23.146;2022-08-23T03:55:54;95044.63;;;16.10;100.00
69570;BME280;56781;42.292;23.146;2022-08-23T03:58:22;95078.19;;;16.25;100.00
69570;BME280;56781;42.292;23.146;2022-08-23T04:00:51;95109.94;;;16.44;100.00
69570;BME280;56781;42.292;23.146;2022-08-23T04:03:18;95109.47;;;16.42;100.00
69570;BME280;56781;42.292;23.146;2022-08-23T04:05:45;95065.03;;;16.23;100.00
69570;BME280;56781;42.292;23.146;2022-08-23T04:08:13;95106.78;;;16.42;100.00
69570;BME280;56781;42.292;23.146;2022-08-23T04:10:57;95122.41;;;16.64;100.00
69570;BME280;56781;42.292;23.146;2022-08-23T04:13:24;95110.97;;;16.55;100.00
69570;BME280;56781;42.292;23.146;2022-08-23T04:15:55;95104.63;;;16.63;100.00
69570;BME280;56781;42.292;23.146;2022-08-23T04:18:22;95101.06;;;16.59;100.00
69570;BME280;56781;42.292;23.146;2022-08-23T04:20:50;95122.09;;;16.81;100.00
69570;BME280;56781;42.292;23.146;2022-08-23T04:23:17;95139.88;;;16.98;100.00
69570;BME280;56781;42.292;23.146;2022-08-23T04:25:44;95124.88;;;16.85;100.00
69570;BME280;56781;42.292;23.146;2022-08-23T04:28:11;95161.16;;;17.00;100.00
69570;BME280;56781;42.292;23.146;2022-08-23T04:30:38;95135.31;;;16.71;100.00
69570;BME280;56781;42.292;23.146;2022-08-23T04:33:07;95143.34;;;16.67;100.00
69570;BME280;56781;42.292;23.146;2022-08-23T04:35:37;95163.34;;;16.78;100.00
69570;BME280;56781;42.292;23.146;2022-08-23T04:38:04;95148.75;;;16.67;100.00
69570;BME280;56781;42.292;23.146;2022-08-23T04:40:51;95119.78;;;16.52;100.00
69570;BME280;56781;42.292;23.146;2022-08-23T04:43:37;95174.59;;;16.80;100.00
69570;BME280;56781;42.292;23.146;2022-08-23T04:46:05;95119.06;;;16.39;100.00
69570;BME280;56781;42.292;23.146;2022-08-23T04:48:32;95156.16;;;16.70;100.00
69570;BME280;56781;42.292;23.146;2022-08-23T04:50:59;95171.09;;;16.96;100.00
69570;BME280;56781;42.292;23.146;2022-08-23T04:53:27;95131.09;;;16.86;100.00
69570;BME280;56781;42.292;23.146;2022-08-23T04:56:02;95161.50;;;16.98;100.00
69570;BME280;56781;42.292;23.146;2022-08-23T04:58:31;95132.72;;;17.06;100.00
69570;BME280;56781;42.292;23.146;2022-08-23T05:01:00;95156.16;;;17.18;100.00
69570;BME280;56781;42.292;23.146;2022-08-23T05:03:28;95112.66;;;16.75;100.00
69570;BME280;56781;42.292;23.146;2022-08-23T05:05:57;95143.22;;;16.92;100.00
69570;BME280;56781;42.292;23.146;2022-08-23T05:08:25;95166.72;;;17.07;100.00
69570;BME280;56781;42.292;23.146;2022-08-23T05:10:52;95137.63;;;16.84;100.00
69570;BME280;56781;42.292;23.146;2022-08-23T05:13:19;95150.09;;;16.89;100.00
69570;BME280;56781;42.292;23.146;2022-08-23T05:15:49;95130.66;;;16.83;100.00
69570;BME280;56781;42.292;23.146;2022-08-23T05:18:17;95135.44;;;16.90;100.00
69570;BME280;56781;42.292;23.146;2022-08-23T05:20:45;95139.97;;;17.02;100.00
69570;BME280;56781;42.292;23.146;2022-08-23T05:23:12;95146.31;;;17.10;100.00
69570;BME280;56781;42.292;23.146;2022-08-23T05:25:39;95159.38;;;17.23;100.00
69570;BME280;56781;42.292;23.146;2022-08-23T05:28:25;95128.19;;;17.10;100.00
69570;BME280;56781;42.292;23.146;2022-08-23T05:30:59;95160.00;;;17.33;100.00
69570;BME280;56781;42.292;23.146;2022-08-23T05:33:28;95116.31;;;17.15;100.00
69570;BME280;56781;42.292;23.146;2022-08-23T05:35:55;95169.22;;;17.47;100.00
69570;BME280;56781;42.292;23.146;2022-08-23T05:38:24;95123.44;;;17.23;100.00
69570;BME280;56781;42.292;23.146;2022-08-23T05:40:53;95163.53;;;17.53;100.00
69570;BME280;56781;42.292;23.146;2022-08-23T05:43:25;95143.06;;;17.36;100.00
69570;BME280;56781;42.292;23.146;2022-08-23T05:46:10;95170.03;;;17.48;100.00
69570;BME280;56781;42.292;23.146;2022-08-23T05:48:40;95127.72;;;17.24;100.00
69570;BME280;56781;42.292;23.146;2022-08-23T05:51:17;95152.19;;;17.47;100.00
69570;BME280;56781;42.292;23.146;2022-08-23T05:53:45;95147.50;;;17.44;100.00
69570;BME280;56781;42.292;23.146;2022-08-23T05:56:22;95152.28;;;17.50;100.00
69570;BME280;56781;42.292;23.146;2022-08-23T05:58:52;95178.91;;;17.64;100.00
69570;BME280;56781;42.292;23.146;2022-08-23T06:01:25;95188.66;;;17.69;100.00
69570;BME280;56781;42.292;23.146;2022-08-23T06:03:53;95187.59;;;17.73;100.00
69570;BME280;56781;42.292;23.146;2022-08-23T06:06:20;95188.56;;;17.65;100.00
69570;BME280;56781;42.292;23.146;2022-08-23T06:09:01;95162.59;;;17.45;100.00
69570;BME280;56781;42.292;23.146;2022-08-23T06:11:29;95169.31;;;17.51;100.00
69570;BME280;56781;42.292;23.146;2022-08-23T06:13:58;95199.97;;;17.75;100.00
69570;BME280;56781;42.292;23.146;2022-08-23T06:16:31;95170.53;;;17.54;100.00
69570;BME280;56781;42.292;23.146;2022-08-23T06:18:59;95162.50;;;17.57;100.00
69570;BME280;56781;42.292;23.146;2022-08-23T06:21:31;95195.38;;;17.75;100.00
69570;BME280;56781;42.292;23.146;2022-08-23T06:23:58;95172.78;;;17.67;100.00
69570;BME280;56781;42.292;23.146;2022-08-23T06:26:30;95210.72;;;17.87;100.00
69570;BME280;56781;42.292;23.146;2022-08-23T06:29:01;95150.94;;;17.60;100.00
69570;BME280;56781;42.292;23.146;2022-08-23T06:31:29;95198.91;;;17.95;100.00
69570;BME280;56781;42.292;23.146;2022-08-23T06:34:33;95180.13;;;18.02;100.00
69570;BME280;56781;42.292;23.146;2022-08-23T06:37:05;95137.19;;;17.69;100.00
69570;BME280;56781;42.292;23.146;2022-08-23T06:39:33;95177.41;;;18.02;100.00
69570;BME280;56781;42.292;23.146;2022-08-23T06:42:10;95162.34;;;18.05;100.00
69570;BME280;56781;42.292;23.146;2022-08-23T06:44:57;95196.66;;;18.36;100.00
69570;BME280;56781;42.292;23.146;2022-08-23T06:47:24;95194.47;;;18.45;100.00
69570;BME280;56781;42.292;23.146;2022-08-23T06:49:51;95196.06;;;18.46;100.00
69570;BME280;56781;42.292;23.146;2022-08-23T06:52:24;95201.41;;;18.43;100.00
69570;BME280;56781;42.292;23.146;2022-08-23T06:54:51;95203.91;;;18.51;100.00
69570;BME280;56781;42.292;23.146;2022-08-23T06:57:18;95191.78;;;18.45;100.00
69570;BME280;56781;42.292;23.146;2022-08-23T06:59:47;95174.69;;;18.41;100.00
69570;BME280;56781;42.292;23.146;2022-08-23T07:02:15;95205.72;;;18.67;100.00
69570;BME280;56781;42.292;23.146;2022-08-23T07:04:42;95201.91;;;18.68;100.00
69570;BME280;56781;42.292;23.146;2022-08-23T07:07:11;95183.84;;;18.56;100.00
69570;BME280;56781;42.292;23.146;2022-08-23T07:09:39;95201.94;;;18.71;100.00
69570;BME280;56781;42.292;23.146;2022-08-23T07:12:07;95174.09;;;18.51;100.00
69570;BME280;56781;42.292;23.146;2022-08-23T07:14:35;95164.38;;;18.50;100.00
69570;BME280;56781;42.292;23.146;2022-08-23T07:17:03;95207.03;;;18.73;100.00
69570;BME280;56781;42.292;23.146;2022-08-23T07:19:32;95206.09;;;18.85;100.00
69570;BME280;56781;42.292;23.146;2022-08-23T07:22:02;95209.63;;;19.08;100.00
69570;BME280;56781;42.292;23.146;2022-08-23T07:24:30;95207.69;;;19.58;100.00
69570;BME280;56781;42.292;23.146;2022-08-23T07:27:00;95212.72;;;20.13;96.99
69570;BME280;56781;42.292;23.146;2022-08-23T07:29:32;95204.09;;;20.04;95.87
69570;BME280;56781;42.292;23.146;2022-08-23T07:31:59;95216.69;;;20.19;96.23
69570;BME280;56781;42.292;23.146;2022-08-23T07:34:27;95184.31;;;20.41;92.77
69570;BME280;56781;42.292;23.146;2022-08-23T07:36:54;95177.56;;;20.27;92.54
69570;BME280;56781;42.292;23.146;2022-08-23T07:39:22;95202.50;;;20.63;91.53
69570;BME280;56781;42.292;23.146;2022-08-23T07:41:49;95204.94;;;20.75;91.07
69570;BME280;56781;42.292;23.146;2022-08-23T07:44:18;95190.97;;;20.43;91.58
69570;BME280;56781;42.292;23.146;2022-08-23T07:46:53;95208.47;;;20.46;91.53
69570;BME280;56781;42.292;23.146;2022-08-23T07:49:20;95210.59;;;20.29;91.89
69570;BME280;56781;42.292;23.146;2022-08-23T07:51:50;95196.34;;;20.06;93.87
69570;BME280;56781;42.292;23.146;2022-08-23T07:54:18;95218.78;;;19.99;94.89
69570;BME280;56781;42.292;23.146;2022-08-23T07:56:46;95210.56;;;19.96;96.28
69570;BME280;56781;42.292;23.146;2022-08-23T07:59:13;95201.41;;;19.77;95.80
69570;BME280;56781;42.292;23.146;2022-08-23T08:01:44;95213.00;;;19.74;94.87
69570;BME280;56781;42.292;23.146;2022-08-23T08:04:12;95168.47;;;19.56;95.76
69570;BME280;56781;42.292;23.146;2022-08-23T08:06:45;95204.56;;;19.83;96.36
69570;BME280;56781;42.292;23.146;2022-08-23T08:09:33;95214.44;;;19.95;95.29
69570;BME280;56781;42.292;23.146;2022-08-23T08:12:00;95163.97;;;19.93;94.76
69570;BME280;56781;42.292;23.146;2022-08-23T08:14:27;95214.69;;;20.46;93.75
69570;BME280;56781;42.292;23.146;2022-08-23T08:16:54;95197.28;;;20.51;91.07
69570;BME280;56781;42.292;23.146;2022-08-23T08:19:24;95202.06;;;20.98;91.44
69570;BME280;56781;42.292;23.146;2022-08-23T08:21:51;95172.41;;;20.86;88.97
69570;BME280;56781;42.292;23.146;2022-08-23T08:24:18;95205.28;;;21.11;87.68
69570;BME280;56781;42.292;23.146;2022-08-23T08:26:46;95206.00;;;21.05;88.40
69570;BME280;56781;42.292;23.146;2022-08-23T08:29:13;95227.09;;;21.15;88.68
69570;BME280;56781;42.292;23.146;2022-08-23T08:31:41;95228.91;;;21.00;89.45
69570;BME280;56781;42.292;23.146;2022-08-23T08:34:09;95179.72;;;20.78;89.89
69570;BME280;56781;42.292;23.146;2022-08-23T08:36:40;95182.47;;;20.82;86.12
69570;BME280;56781;42.292;23.146;2022-08-23T08:39:14;95217.25;;;21.44;85.97
69570;BME280;56781;42.292;23.146;2022-08-23T08:41:50;95203.72;;;21.55;85.68
69570;BME280;56781;42.292;23.146;2022-08-23T08:44:46;95222.25;;;21.90;83.40
69570;BME280;56781;42.292;23.146;2022-08-23T08:50:32;95122.56;;;21.89;85.49
69570;BME280;56781;42.292;23.146;2022-08-23T08:53:14;95201.22;;;22.64;79.22
69570;BME280;56781;42.292;23.146;2022-08-23T08:55:47;95174.34;;;22.87;79.09
69570;BME280;56781;42.292;23.146;2022-08-23T08:58:40;95170.44;;;22.81;79.00
69570;BME280;56781;42.292;23.146;2022-08-23T09:01:08;95185.97;;;22.63;80.93
69570;BME280;56781;42.292;23.146;2022-08-23T09:03:35;95188.72;;;22.63;78.63
69570;BME280;56781;42.292;23.146;2022-08-23T09:09:08;95189.00;;;22.29;80.24
69570;BME280;56781;42.292;23.146;2022-08-23T09:12:10;95155.44;;;22.18;78.77
69570;BME280;56781;42.292;23.146;2022-08-23T09:17:43;95168.50;;;22.92;77.71
69570;BME280;56781;42.292;23.146;2022-08-23T09:20:14;95187.66;;;23.28;79.41
69570;BME280;56781;42.292;23.146;2022-08-23T09:22:51;95181.41;;;23.31;78.99
69570;BME280;56781;42.292;23.146;2022-08-23T09:25:23;95162.69;;;23.30;80.86
69570;BME280;56781;42.292;23.146;2022-08-23T09:27:50;95178.31;;;23.61;79.60
69570;BME280;56781;42.292;23.146;2022-08-23T09:30:18;95158.00;;;23.23;78.18
69570;BME280;56781;42.292;23.146;2022-08-23T09:32:46;95160.38;;;23.21;77.18
69570;BME280;56781;42.292;23.146;2022-08-23T09:35:20;95152.16;;;23.10;75.75
69570;BME280;56781;42.292;23.146;2022-08-23T09:38:01;95161.91;;;23.15;79.16
69570;BME280;56781;42.292;23.146;2022-08-23T09:40:33;95170.13;;;23.33;79.94
69570;BME280;56781;42.292;23.146;2022-08-23T09:43:10;95140.47;;;23.17;78.31
69570;BME280;56781;42.292;23.146;2022-08-23T09:45:54;95179.88;;;23.59;80.14
69570;BME280;56781;42.292;23.146;2022-08-23T09:48:37;95165.03;;;23.60;75.41
69570;BME280;56781;42.292;23.146;2022-08-23T09:56:52;95169.97;;;24.22;76.04
69570;BME280;56781;42.292;23.146;2022-08-23T09:59:37;95126.63;;;24.10;75.10
69570;BME280;56781;42.292;23.146;2022-08-23T10:02:13;95148.50;;;24.10;71.57
69570;BME280;56781;42.292;23.146;2022-08-23T10:04:44;95149.28;;;24.14;74.05
69570;BME280;56781;42.292;23.146;2022-08-23T10:10:14;95128.13;;;24.25;74.47
69570;BME280;56781;42.292;23.146;2022-08-23T10:12:42;95141.72;;;24.54;72.76
69570;BME280;56781;42.292;23.146;2022-08-23T10:15:09;95153.69;;;24.74;74.33
69570;BME280;56781;42.292;23.146;2022-08-23T10:17:39;95135.78;;;24.63;73.10
69570;BME280;56781;42.292;23.146;2022-08-23T10:20:26;95141.88;;;24.92;72.43
69570;BME280;56781;42.292;23.146;2022-08-23T10:26:29;95095.19;;;24.54;74.04
69570;BME280;56781;42.292;23.146;2022-08-23T10:29:14;95128.19;;;24.88;71.55
69570;BME280;56781;42.292;23.146;2022-08-23T10:32:23;95133.31;;;24.83;70.07
69570;BME280;56781;42.292;23.146;2022-08-23T10:35:16;95133.66;;;24.92;70.04
69570;BME280;56781;42.292;23.146;2022-08-23T10:38:01;95123.78;;;25.02;72.69
69570;BME280;56781;42.292;23.146;2022-08-23T10:40:48;95123.66;;;25.23;73.82
69570;BME280;56781;42.292;23.146;2022-08-23T10:43:38;95129.56;;;25.18;68.83
69570;BME280;56781;42.292;23.146;2022-08-23T10:46:08;95126.97;;;25.45;67.43
69570;BME280;56781;42.292;23.146;2022-08-23T10:48:50;95117.44;;;25.15;69.95
69570;BME280;56781;42.292;23.146;2022-08-23T10:51:42;95100.25;;;25.11;70.92
69570;BME280;56781;42.292;23.146;2022-08-23T10:54:20;95052.22;;;24.96;67.72
69570;BME280;56781;42.292;23.146;2022-08-23T10:57:03;95072.75;;;25.26;69.37
69570;BME280;56781;42.292;23.146;2022-08-23T10:59:31;95116.28;;;25.58;68.15
69570;BME280;56781;42.292;23.146;2022-08-23T11:02:33;95110.34;;;25.63;66.08
69570;BME280;56781;42.292;23.146;2022-08-23T11:05:20;95089.69;;;25.55;61.53
69570;BME280;56781;42.292;23.146;2022-08-23T11:07:59;95050.56;;;25.51;69.29
69570;BME280;56781;42.292;23.146;2022-08-23T11:10:47;95101.19;;;25.77;59.70
69570;BME280;56781;42.292;23.146;2022-08-23T11:13:25;95080.94;;;25.67;64.23
69570;BME280;56781;42.292;23.146;2022-08-23T11:15:57;95088.59;;;25.83;60.85
69570;BME280;56781;42.292;23.146;2022-08-23T11:21:08;95068.09;;;25.95;64.01
69570;BME280;56781;42.292;23.146;2022-08-23T11:23:53;95085.34;;;26.26;61.22
69570;BME280;56781;42.292;23.146;2022-08-23T11:31:32;95029.94;;;26.07;64.07
69570;BME280;56781;42.292;23.146;2022-08-23T11:34:32;95038.16;;;26.07;58.95
69570;BME280;56781;42.292;23.146;2022-08-23T11:44:55;95073.91;;;26.31;55.50
69570;BME280;56781;42.292;23.146;2022-08-23T11:47:38;95008.38;;;25.75;55.18
69570;BME280;56781;42.292;23.146;2022-08-23T11:55:20;95064.63;;;25.91;55.84
69570;BME280;56781;42.292;23.146;2022-08-23T12:01:06;95071.84;;;26.08;50.27
69570;BME280;56781;42.292;23.146;2022-08-23T12:03:53;95062.84;;;26.07;51.01
69570;BME280;56781;42.292;23.146;2022-08-23T12:08:52;95062.06;;;26.38;49.77
69570;BME280;56781;42.292;23.146;2022-08-23T12:11:23;95068.59;;;26.47;50.11
69570;BME280;56781;42.292;23.146;2022-08-23T12:13:55;95072.13;;;26.48;50.08
69570;BME280;56781;42.292;23.146;2022-08-23T12:18:50;95065.84;;;26.47;49.75
69570;BME280;56781;42.292;23.146;2022-08-23T12:24:19;95043.78;;;25.97;53.97
69570;BME280;56781;42.292;23.146;2022-08-23T12:26:53;95053.78;;;26.11;54.51
69570;BME280;56781;42.292;23.146;2022-08-23T12:29:41;95060.72;;;26.22;51.89
69570;BME280;56781;42.292;23.146;2022-08-23T12:32:52;95041.19;;;26.17;53.35
69570;BME280;56781;42.292;23.146;2022-08-23T12:38:11;95044.03;;;26.09;56.07
69570;BME280;56781;42.292;23.146;2022-08-23T12:40:44;95009.38;;;25.92;55.09
69570;BME280;56781;42.292;23.146;2022-08-23T12:45:58;95029.00;;;26.18;54.39
69570;BME280;56781;42.292;23.146;2022-08-23T12:48:32;95006.59;;;26.23;58.29
69570;BME280;56781;42.292;23.146;2022-08-23T12:51:00;95026.53;;;26.27;54.66
69570;BME280;56781;42.292;23.146;2022-08-23T12:53:36;95042.16;;;26.30;55.81
69570;BME280;56781;42.292;23.146;2022-08-23T12:56:16;95038.66;;;26.29;55.85
69570;BME280;56781;42.292;23.146;2022-08-23T12:58:47;95040.53;;;26.36;59.60
69570;BME280;56781;42.292;23.146;2022-08-23T13:01:21;95003.03;;;26.26;57.95
69570;BME280;56781;42.292;23.146;2022-08-23T13:03:53;95028.06;;;26.59;57.82
69570;BME280;56781;42.292;23.146;2022-08-23T13:06:50;94995.56;;;26.26;54.73
69570;BME280;56781;42.292;23.146;2022-08-23T13:09:30;95027.94;;;26.39;53.65
69570;BME280;56781;42.292;23.146;2022-08-23T13:11:59;95021.66;;;26.38;52.79
69570;BME280;56781;42.292;23.146;2022-08-23T13:19:57;94967.34;;;26.26;53.87
69570;BME280;56781;42.292;23.146;2022-08-23T13:22:37;95013.84;;;26.64;56.21
69570;BME280;56781;42.292;23.146;2022-08-23T13:25:10;94989.09;;;26.40;52.05
69570;BME280;56781;42.292;23.146;2022-08-23T13:28:21;94991.81;;;26.40;56.03
69570;BME280;56781;42.292;23.146;2022-08-23T13:31:03;94989.16;;;26.37;53.94
69570;BME280;56781;42.292;23.146;2022-08-23T13:33:30;95017.91;;;26.56;50.33
69570;BME280;56781;42.292;23.146;2022-08-23T13:36:19;95031.22;;;26.57;55.66
69570;BME280;56781;42.292;23.146;2022-08-23T13:38:47;95031.28;;;26.53;54.25
69570;BME280;56781;42.292;23.146;2022-08-23T13:41:33;95015.53;;;26.27;52.61
69570;BME280;56781;42.292;23.146;2022-08-23T13:44:08;95017.66;;;26.16;52.34
69570;BME280;56781;42.292;23.146;2022-08-23T13:46:43;95026.72;;;26.13;55.90
69570;BME280;56781;42.292;23.146;2022-08-23T13:49:23;95024.81;;;26.09;53.08
69570;BME280;56781;42.292;23.146;2022-08-23T13:54:47;95019.69;;;26.12;58.77
69570;BME280;56781;42.292;23.146;2022-08-23T13:57:18;95009.56;;;26.08;60.86
69570;BME280;56781;42.292;23.146;2022-08-23T13:59:52;95011.63;;;25.97;63.77
69570;BME280;56781;42.292;23.146;2022-08-23T14:02:21;94984.50;;;25.72;63.33
69570;BME280;56781;42.292;23.146;2022-08-23T14:04:48;95020.03;;;26.14;64.82
69570;BME280;56781;42.292;23.146;2022-08-23T14:07:15;95048.03;;;26.32;66.27
69570;BME280;56781;42.292;23.146;2022-08-23T14:09:43;95051.47;;;26.09;63.75
69570;BME280;56781;42.292;23.146;2022-08-23T14:12:16;95069.66;;;25.96;63.99
69570;BME280;56781;42.292;23.146;2022-08-23T14:14:44;95060.19;;;25.28;63.77
69570;BME280;56781;42.292;23.146;2022-08-23T14:17:12;95049.59;;;24.85;61.96
69570;BME280;56781;42.292;23.146;2022-08-23T14:19:43;95068.31;;;24.90;64.65
69570;BME280;56781;42.292;23.146;2022-08-23T14:22:33;95048.31;;;24.45;65.11
69570;BME280;56781;42.292;23.146;2022-08-23T14:25:00;95066.28;;;24.49;65.97
69570;BME280;56781;42.292;23.146;2022-08-23T14:27:27;95086.22;;;24.43;64.26